Wetterdaten: Woche 30.12.19 - 05.01.20 (KW1)
Datum Zeit Temp. A. Feuchte A. Luftdruck Regen Wind Richtung Taupunkt Windchill Windben
30.12.2019 00:00 -2,8 C 77 % 1039,9 hPa 0,0 l/m 0,0 km/h N -6,4 C -2,8 C 0,0 km/h
30.12.2019 01:00 -3,7 C 79 % 1039,9 hPa 0,0 l/m 0,0 km/h N -6,9 C -3,7 C 0,0 km/h
30.12.2019 02:00 -3,7 C 80 % 1039,6 hPa 0,0 l/m 0,0 km/h N -6,6 C -3,7 C 0,0 km/h
30.12.2019 03:00 -3,9 C 81 % 1039,4 hPa 0,0 l/m 0,0 km/h N -6,6 C -3,9 C 0,0 km/h
30.12.2019 04:00 -4,6 C 81 % 1039,1 hPa 0,0 l/m 0,0 km/h N -7,4 C -4,6 C 0,0 km/h
30.12.2019 05:00 -5,3 C 82 % 1039,2 hPa 0,0 l/m 0,0 km/h N -8,0 C -5,3 C 0,0 km/h
30.12.2019 06:00 -5,6 C 82 % 1039,2 hPa 0,0 l/m 0,0 km/h N -8,1 C -5,6 C 0,0 km/h
30.12.2019 07:00 -4,7 C 83 % 1038,9 hPa 0,0 l/m 0,0 km/h N -7,1 C -4,7 C 0,0 km/h
30.12.2019 08:00 -3,9 C 83 % 1038,9 hPa 0,0 l/m 0,0 km/h N -6,4 C -3,9 C 0,0 km/h
30.12.2019 09:00 -3,8 C 83 % 1039,0 hPa 0,0 l/m 0,0 km/h N -6,2 C -3,8 C 0,0 km/h
30.12.2019 10:00 -2,4 C 83 % 1038,9 hPa 0,0 l/m 0,0 km/h N -4,9 C -2,4 C 0,0 km/h
30.12.2019 11:00 -0,1 C 79 % 1038,2 hPa 0,0 l/m 0,2 km/h N -3,4 C -0,1 C 4,8 km/h
30.12.2019 12:00 1,7 C 68 % 1037,2 hPa 0,0 l/m 0,1 km/h N -3,6 C 1,7 C 3,6 km/h
30.12.2019 13:00 2,0 C 66 % 1036,5 hPa 0,0 l/m 0,0 km/h N -3,7 C 2,0 C 0,8 km/h
30.12.2019 14:00 2,3 C 64 % 1036,1 hPa 0,0 l/m 0,0 km/h N -3,8 C 2,3 C 0,8 km/h
30.12.2019 15:00 2,3 C 65 % 1035,9 hPa 0,0 l/m 0,0 km/h N -3,7 C 2,3 C 0,0 km/h
30.12.2019 16:00 2,0 C 66 % 1035,8 hPa 0,0 l/m 0,0 km/h N -3,7 C 2,0 C 0,0 km/h
30.12.2019 17:00 1,7 C 67 % 1035,5 hPa 0,0 l/m 0,0 km/h N -3,8 C 1,7 C 1,2 km/h
30.12.2019 18:00 1,5 C 69 % 1035,0 hPa 0,0 l/m 0,0 km/h N -3,7 C 1,5 C 0,8 km/h
30.12.2019 19:00 0,7 C 70 % 1034,8 hPa 0,0 l/m 0,0 km/h N -4,1 C 0,7 C 0,0 km/h
30.12.2019 20:00 -0,4 C 74 % 1034,1 hPa 0,0 l/m 0,0 km/h N -4,5 C -0,4 C 0,0 km/h
30.12.2019 21:00 -1,2 C 77 % 1033,3 hPa 0,0 l/m 0,0 km/h N -4,7 C -1,2 C 0,0 km/h
30.12.2019 22:00 -2,1 C 80 % 1032,7 hPa 0,0 l/m 0,0 km/h N -5,2 C -2,1 C 0,0 km/h
30.12.2019 23:00 -2,3 C 81 % 1032,2 hPa 0,0 l/m 0,0 km/h N -5,1 C -2,3 C 0,0 km/h
31.12.2019 00:00 -2,4 C 82 % 1031,6 hPa 0,0 l/m 0,0 km/h N -5,1 C -2,4 C 0,0 km/h
31.12.2019 01:00 -2,1 C 83 % 1030,8 hPa 0,0 l/m 0,0 km/h N -4,6 C -2,1 C 0,0 km/h
31.12.2019 02:00 -1,8 C 83 % 1030,2 hPa 0,0 l/m 0,0 km/h N -4,3 C -1,8 C 0,0 km/h
31.12.2019 03:00 -1,7 C 83 % 1029,7 hPa 0,0 l/m 0,0 km/h N -4,2 C -1,7 C 0,0 km/h
31.12.2019 04:00 -1,6 C 83 % 1029,3 hPa 0,0 l/m 0,0 km/h N -4,1 C -1,6 C 0,0 km/h
31.12.2019 05:00 -1,5 C 83 % 1028,6 hPa 0,0 l/m 0,0 km/h N -4,0 C -1,5 C 0,0 km/h
31.12.2019 06:00 -1,3 C 83 % 1028,3 hPa 0,0 l/m 0,0 km/h N -3,8 C -1,3 C 0,0 km/h
31.12.2019 07:00 -1,2 C 83 % 1028,0 hPa 0,0 l/m 0,0 km/h N -3,7 C -1,2 C 0,0 km/h
31.12.2019 08:00 -1,6 C 83 % 1028,3 hPa 0,0 l/m 0,0 km/h N -4,1 C -1,6 C 0,0 km/h
31.12.2019 09:00 -0,9 C 83 % 1027,6 hPa 0,0 l/m 0,0 km/h N -3,5 C -0,9 C 1,6 km/h
31.12.2019 10:00 1,5 C 83 % 1027,6 hPa 0,0 l/m 0,6 km/h N -1,1 C 1,5 C 6,0 km/h
31.12.2019 11:00 10,6 C 50 % 1026,0 hPa 0,3 l/m 13,3 km/h N 0,5 C 6,7 C 39,5 km/h
31.12.2019 12:00 11,1 C 42 % 1026,1 hPa 0,0 l/m 15,9 km/h N -1,3 C 6,1 C 39,0 km/h
31.12.2019 13:00 10,6 C 43 % 1026,9 hPa 0,0 l/m 9,5 km/h N -1,6 C 8,8 C 27,4 km/h
31.12.2019 14:00 9,9 C 44 % 1028,0 hPa 0,0 l/m 5,4 km/h N -1,8 C 9,7 C 20,1 km/h
31.12.2019 15:00 8,7 C 50 % 1029,1 hPa 0,0 l/m 3,9 km/h N -1,2 C 8,7 C 17,3 km/h
31.12.2019 16:00 8,0 C 56 % 1030,1 hPa 0,0 l/m 2,7 km/h N -0,3 C 8,0 C 15,7 km/h
31.12.2019 17:00 7,1 C 60 % 1029,9 hPa 0,0 l/m 4,1 km/h N -0,1 C 7,1 C 18,1 km/h
31.12.2019 18:00 6,1 C 64 % 1030,7 hPa 0,0 l/m 4,3 km/h N -0,2 C 5,5 C 17,3 km/h
31.12.2019 19:00 5,3 C 65 % 1031,8 hPa 0,0 l/m 8,3 km/h N -0,7 C 3,7 C 21,3 km/h
31.12.2019 20:00 4,7 C 68 % 1032,6 hPa 0,0 l/m 4,2 km/h N -0,8 C 4,6 C 15,7 km/h
31.12.2019 21:00 4,3 C 71 % 1033,1 hPa 0,0 l/m 2,2 km/h N -0,6 C 4,3 C 14,9 km/h
31.12.2019 22:00 3,8 C 72 % 1033,1 hPa 0,0 l/m 1,1 km/h N -0,8 C 3,8 C 7,6 km/h
31.12.2019 23:00 3,7 C 72 % 1033,3 hPa 0,0 l/m 0,7 km/h N -0,8 C 3,7 C 8,0 km/h
01.01.2020 00:00 3,6 C 72 % 1033,7 hPa 0,0 l/m 0,9 km/h N -1,0 C 3,6 C 7,6 km/h
01.01.2020 01:00 3,8 C 70 % 1034,0 hPa 0,0 l/m 2,7 km/h N -1,1 C 3,8 C 15,3 km/h
01.01.2020 02:00 4,1 C 68 % 1034,3 hPa 0,0 l/m 2,8 km/h N -1,4 C 4,1 C 15,7 km/h
01.01.2020 03:00 3,6 C 69 % 1034,1 hPa 0,0 l/m 0,8 km/h N -1,7 C 3,6 C 8,1 km/h
01.01.2020 04:00 2,8 C 70 % 1033,9 hPa 0,0 l/m 0,4 km/h N -2,1 C 2,8 C 4,4 km/h
01.01.2020 05:00 1,9 C 74 % 1034,2 hPa 0,0 l/m 0,2 km/h N -2,3 C 1,9 C 2,0 km/h
01.01.2020 06:00 1,2 C 76 % 1034,6 hPa 0,0 l/m 0,0 km/h N -2,5 C 1,2 C 1,2 km/h
01.01.2020 07:00 0,5 C 79 % 1034,9 hPa 0,0 l/m 0,0 km/h N -2,7 C 0,5 C 0,4 km/h
01.01.2020 08:00 1,5 C 79 % 1035,1 hPa 0,0 l/m 0,1 km/h N -1,8 C 1,5 C 1,6 km/h
01.01.2020 09:00 2,3 C 76 % 1035,5 hPa 0,0 l/m 0,1 km/h N -1,6 C 2,3 C 1,6 km/h
01.01.2020 10:00 3,3 C 72 % 1035,8 hPa 0,0 l/m 0,2 km/h N -1,2 C 3,3 C 2,4 km/h
01.01.2020 11:00 4,3 C 68 % 1035,2 hPa 0,0 l/m 1,8 km/h N -1,1 C 4,3 C 8,4 km/h
01.01.2020 12:00 5,2 C 64 % 1034,4 hPa 0,0 l/m 3,0 km/h N -1,1 C 5,2 C 13,3 km/h
01.01.2020 13:00 5,4 C 63 % 1034,0 hPa 0,0 l/m 2,6 km/h N -1,1 C 5,4 C 14,1 km/h
01.01.2020 14:00 5,7 C 63 % 1033,6 hPa 0,0 l/m 1,2 km/h N -0,9 C 5,7 C 6,8 km/h
01.01.2020 15:00 5,7 C 62 % 1033,7 hPa 0,0 l/m 0,9 km/h N -1,0 C 5,7 C 4,8 km/h
01.01.2020 16:00 4,6 C 64 % 1034,3 hPa 0,0 l/m 0,1 km/h N -1,6 C 4,6 C 1,2 km/h
01.01.2020 17:00 2,2 C 67 % 1034,6 hPa 0,0 l/m 0,0 km/h N -3,2 C 2,2 C 0,0 km/h
01.01.2020 18:00 0,2 C 73 % 1035,1 hPa 0,0 l/m 0,0 km/h N -4,0 C 0,2 C 0,0 km/h
01.01.2020 19:00 -1,0 C 78 % 1035,2 hPa 0,0 l/m 0,0 km/h N -4,4 C -1,0 C 0,0 km/h
01.01.2020 20:00 -1,4 C 81 % 1035,1 hPa 0,0 l/m 0,0 km/h N -4,3 C -1,4 C 0,0 km/h
01.01.2020 21:00 -1,4 C 82 % 1034,8 hPa 0,0 l/m 0,0 km/h N -4,0 C -1,4 C 0,0 km/h
01.01.2020 22:00 -2,0 C 82 % 1034,4 hPa 0,0 l/m 0,0 km/h N -4,7 C -2,0 C 0,0 km/h
01.01.2020 23:00 -2,7 C 82 % 1034,0 hPa 0,0 l/m 0,0 km/h N -5,3 C -2,7 C 0,0 km/h
02.01.2020 00:00 -2,9 C 83 % 1033,6 hPa 0,0 l/m 0,0 km/h N -5,3 C -2,9 C 0,0 km/h
02.01.2020 01:00 -3,1 C 83 % 1033,4 hPa 0,0 l/m 0,0 km/h N -5,5 C -3,1 C 0,0 km/h
02.01.2020 02:00 -4,0 C 83 % 1033,6 hPa 0,0 l/m 0,0 km/h N -6,4 C -4,0 C 0,0 km/h
02.01.2020 03:00 -4,4 C 83 % 1033,7 hPa 0,0 l/m 0,0 km/h N -6,9 C -4,4 C 0,0 km/h
02.01.2020 04:00 -4,1 C 83 % 1033,5 hPa 0,0 l/m 0,0 km/h N -6,5 C -4,1 C 0,0 km/h
02.01.2020 05:00 -4,4 C 83 % 1033,7 hPa 0,0 l/m 0,0 km/h N -6,8 C -4,4 C 0,0 km/h
02.01.2020 06:00 -4,3 C 83 % 1033,5 hPa 0,0 l/m 0,0 km/h N -6,7 C -4,3 C 0,0 km/h
02.01.2020 07:00 -4,6 C 83 % 1033,0 hPa 0,0 l/m 0,0 km/h N -7,0 C -4,6 C 0,0 km/h
02.01.2020 08:00 -4,8 C 83 % 1032,8 hPa 0,0 l/m 0,0 km/h N -7,2 C -4,8 C 0,0 km/h
02.01.2020 09:00 -4,0 C 82 % 1033,1 hPa 0,0 l/m 0,0 km/h N -6,6 C -4,0 C 0,0 km/h
02.01.2020 10:00 -1,9 C 82 % 1033,2 hPa 0,0 l/m 0,0 km/h N -4,6 C -1,9 C 0,0 km/h
02.01.2020 11:00 -0,2 C 82 % 1032,4 hPa 0,0 l/m 0,0 km/h N -2,8 C -0,2 C 0,0 km/h
02.01.2020 12:00 1,4 C 82 % 1031,3 hPa 0,0 l/m 0,0 km/h N -1,4 C 1,4 C 0,0 km/h
02.01.2020 13:00 2,8 C 78 % 1030,6 hPa 0,0 l/m 0,0 km/h N -0,8 C 2,8 C 0,0 km/h
02.01.2020 14:00 4,0 C 73 % 1030,1 hPa 0,0 l/m 0,0 km/h N -0,3 C 4,0 C 0,0 km/h
02.01.2020 15:00 4,7 C 70 % 1029,8 hPa 0,0 l/m 0,0 km/h N -0,2 C 4,7 C 0,0 km/h
02.01.2020 16:00 2,9 C 72 % 1029,6 hPa 0,0 l/m 0,0 km/h N -1,8 C 2,9 C 0,0 km/h
02.01.2020 17:00 0,2 C 76 % 1029,4 hPa 0,0 l/m 0,0 km/h N -3,6 C 0,2 C 0,0 km/h
02.01.2020 18:00 -1,6 C 80 % 1029,8 hPa 0,0 l/m 0,0 km/h N -4,7 C -1,6 C 0,0 km/h
02.01.2020 19:00 -2,6 C 82 % 1029,6 hPa 0,0 l/m 0,0 km/h N -5,3 C -2,6 C 0,0 km/h
02.01.2020 20:00 -3,2 C 83 % 1029,6 hPa 0,0 l/m 0,0 km/h N -5,7 C -3,2 C 0,0 km/h
02.01.2020 21:00 -3,1 C 83 % 1029,4 hPa 0,0 l/m 0,0 km/h N -5,5 C -3,1 C 0,0 km/h
02.01.2020 22:00 -3,7 C 83 % 1029,4 hPa 0,0 l/m 0,0 km/h N -6,1 C -3,7 C 0,0 km/h
02.01.2020 23:00 -4,3 C 83 % 1029,2 hPa 0,0 l/m 0,0 km/h N -6,7 C -4,3 C 0,0 km/h
03.01.2020 00:00 -5,0 C 83 % 1029,0 hPa 0,0 l/m 0,0 km/h N -7,4 C -5,0 C 0,0 km/h
03.01.2020 01:00 -5,3 C 83 % 1028,7 hPa 0,0 l/m 0,0 km/h N -7,7 C -5,3 C 0,0 km/h
03.01.2020 02:00 -5,5 C 83 % 1028,5 hPa 0,0 l/m 0,0 km/h N -7,9 C -5,5 C 0,0 km/h
03.01.2020 03:00 -5,3 C 82 % 1028,4 hPa 0,0 l/m 0,0 km/h N -7,8 C -5,3 C 0,0 km/h
03.01.2020 04:00 -4,3 C 82 % 1028,2 hPa 0,0 l/m 0,0 km/h N -6,9 C -4,3 C 0,0 km/h
03.01.2020 05:00 -5,0 C 82 % 1028,4 hPa 0,0 l/m 0,0 km/h N -7,6 C -5,0 C 0,0 km/h
03.01.2020 06:00 -4,8 C 84 % 1028,9 hPa 0,0 l/m 0,0 km/h N -7,1 C -4,8 C 0,0 km/h
03.01.2020 07:00 -4,7 C 82 % 1029,2 hPa 0,0 l/m 0,0 km/h N -7,3 C -4,7 C 0,0 km/h
03.01.2020 08:00 -4,9 C 82 % 1029,6 hPa 0,0 l/m 0,0 km/h N -7,5 C -4,9 C 0,0 km/h
03.01.2020 09:00 -4,7 C 82 % 1029,6 hPa 0,0 l/m 0,0 km/h N -7,3 C -4,7 C 0,0 km/h
03.01.2020 10:00 -3,7 C 82 % 1029,2 hPa 0,0 l/m 0,0 km/h N -6,3 C -3,7 C 2,4 km/h
03.01.2020 11:00 -2,5 C 82 % 1028,3 hPa 0,0 l/m 0,0 km/h N -5,1 C -2,5 C 0,8 km/h
03.01.2020 12:00 -1,9 C 82 % 1027,5 hPa 0,0 l/m 0,0 km/h N -4,6 C -1,9 C 0,4 km/h
03.01.2020 13:00 -1,8 C 82 % 1026,8 hPa 0,0 l/m 0,0 km/h N -4,5 C -1,8 C 0,8 km/h
03.01.2020 14:00 -1,7 C 82 % 1026,4 hPa 0,0 l/m 0,0 km/h N -4,4 C -1,7 C 0,4 km/h
03.01.2020 15:00 -1,8 C 82 % 1026,0 hPa 0,0 l/m 0,0 km/h N -4,5 C -1,8 C 1,6 km/h
03.01.2020 16:00 -2,1 C 82 % 1026,1 hPa 0,0 l/m 0,0 km/h N -4,8 C -2,1 C 0,8 km/h
03.01.2020 17:00 -2,4 C 82 % 1026,4 hPa 0,0 l/m 0,0 km/h N -5,1 C -2,4 C 0,4 km/h
03.01.2020 18:00 -2,6 C 82 % 1026,2 hPa 0,0 l/m 0,0 km/h N -5,2 C -2,6 C 0,0 km/h
03.01.2020 19:00 -2,4 C 82 % 1026,3 hPa 0,0 l/m 0,0 km/h N -5,1 C -2,4 C 0,0 km/h
03.01.2020 20:00 -2,4 C 82 % 1025,9 hPa 0,0 l/m 0,0 km/h N -5,0 C -2,4 C 0,4 km/h
03.01.2020 21:00 -2,3 C 82 % 1025,8 hPa 0,0 l/m 0,0 km/h N -4,9 C -2,3 C 0,4 km/h
03.01.2020 22:00 -2,1 C 82 % 1025,3 hPa 0,0 l/m 0,1 km/h N -4,8 C -2,1 C 2,0 km/h
03.01.2020 23:00 -2,1 C 82 % 1025,2 hPa 0,0 l/m 0,0 km/h N -4,8 C -2,1 C 1,2 km/h
04.01.2020 00:00 -2,2 C 82 % 1024,8 hPa 0,0 l/m 0,0 km/h N -4,8 C -2,2 C 0,0 km/h
04.01.2020 01:00 -0,4 C 83 % 1023,8 hPa 0,0 l/m 1,3 km/h N -2,8 C -0,4 C 9,6 km/h
04.01.2020 02:00 8,1 C 80 % 1022,7 hPa 0,3 l/m 10,4 km/h N 4,7 C 5,4 C 36,2 km/h
04.01.2020 03:00 9,6 C 71 % 1022,2 hPa 0,0 l/m 9,8 km/h N 4,6 C 7,3 C 34,6 km/h
04.01.2020 04:00 9,5 C 72 % 1022,4 hPa 0,0 l/m 8,3 km/h N 4,6 C 7,9 C 29,3 km/h
04.01.2020 05:00 9,0 C 75 % 1022,4 hPa 0,0 l/m 8,9 km/h N 4,7 C 7,3 C 29,8 km/h
04.01.2020 06:00 8,7 C 76 % 1022,8 hPa 0,0 l/m 6,4 km/h N 4,7 C 8,3 C 28,6 km/h
04.01.2020 07:00 8,6 C 77 % 1023,2 hPa 0,0 l/m 2,2 km/h N 4,7 C 8,6 C 15,3 km/h
04.01.2020 08:00 8,6 C 76 % 1023,8 hPa 0,0 l/m 1,9 km/h N 4,6 C 8,6 C 13,3 km/h
04.01.2020 09:00 8,1 C 76 % 1024,5 hPa 0,0 l/m 2,6 km/h N 4,2 C 8,1 C 15,7 km/h
04.01.2020 10:00 6,2 C 79 % 1025,3 hPa 0,5 l/m 1,6 km/h N 2,9 C 6,2 C 9,7 km/h
04.01.2020 11:00 5,4 C 80 % 1024,7 hPa 0,3 l/m 0,5 km/h N 2,3 C 5,4 C 4,0 km/h
04.01.2020 12:00 5,4 C 81 % 1023,8 hPa 0,0 l/m 0,3 km/h N 2,4 C 5,4 C 4,4 km/h
04.01.2020 13:00 5,4 C 80 % 1023,0 hPa 0,0 l/m 1,7 km/h N 2,3 C 5,4 C 13,7 km/h
04.01.2020 14:00 5,5 C 76 % 1022,6 hPa 0,0 l/m 2,8 km/h N 1,6 C 5,5 C 14,9 km/h
04.01.2020 15:00 5,6 C 72 % 1022,1 hPa 0,0 l/m 3,3 km/h N 1,0 C 5,6 C 16,5 km/h
04.01.2020 16:00 5,3 C 70 % 1022,2 hPa 0,0 l/m 9,7 km/h N 0,2 C 2,7 C 28,6 km/h
04.01.2020 17:00 5,5 C 70 % 1021,9 hPa 0,0 l/m 12,5 km/h N 0,4 C 1,1 C 36,2 km/h
04.01.2020 18:00 5,7 C 70 % 1021,5 hPa 0,3 l/m 18,8 km/h N 0,6 C -1,7 C 50,7 km/h
04.01.2020 19:00 5,2 C 74 % 1021,8 hPa 0,0 l/m 14,0 km/h N 1,0 C -0,1 C 41,4 km/h
04.01.2020 20:00 5,2 C 74 % 1021,6 hPa 0,0 l/m 14,6 km/h N 0,9 C -0,5 C 39,8 km/h
04.01.2020 21:00 5,2 C 75 % 1021,7 hPa 0,3 l/m 14,8 km/h N 1,1 C -0,6 C 49,5 km/h
04.01.2020 22:00 5,0 C 76 % 1021,8 hPa 0,3 l/m 16,9 km/h N 1,1 C -1,9 C 44,7 km/h
04.01.2020 23:00 5,1 C 76 % 1022,1 hPa 0,3 l/m 16,0 km/h N 1,1 C -1,3 C 40,6 km/h
05.01.2020 00:00 3,1 C 80 % 1023,9 hPa 1,8 l/m 9,7 km/h N 0,1 C 0,3 C 26,1 km/h
05.01.2020 01:00 3,0 C 81 % 1024,7 hPa 0,0 l/m 8,9 km/h N -0,0 C 0,7 C 24,5 km/h
05.01.2020 02:00 2,7 C 74 % 1025,7 hPa 0,0 l/m 9,0 km/h N -1,4 C 0,3 C 22,9 km/h
05.01.2020 03:00 2,9 C 69 % 1026,6 hPa 0,0 l/m 9,0 km/h N -2,2 C 0,6 C 25,8 km/h
05.01.2020 04:00 3,0 C 68 % 1027,6 hPa 0,0 l/m 8,0 km/h N -2,3 C 1,5 C 21,3 km/h
05.01.2020 05:00 2,9 C 70 % 1028,5 hPa 0,0 l/m 8,4 km/h N -2,0 C 1,0 C 20,5 km/h
05.01.2020 06:00 2,7 C 69 % 1029,8 hPa 0,0 l/m 9,1 km/h N -2,5 C 0,3 C 25,4 km/h
05.01.2020 07:00 2,5 C 66 % 1030,7 hPa 0,0 l/m 11,5 km/h N -3,1 C -1,8 C 31,0 km/h
05.01.2020 08:00 2,3 C 67 % 1031,7 hPa 0,0 l/m 11,1 km/h N -3,2 C -1,7 C 31,4 km/h
05.01.2020 09:00 2,3 C 69 % 1032,4 hPa 0,0 l/m 13,1 km/h N -2,8 C -3,0 C 32,6 km/h
05.01.2020 10:00 2,7 C 67 % 1033,1 hPa 0,0 l/m 11,2 km/h N -2,8 C -1,3 C 31,8 km/h
05.01.2020 11:00 3,3 C 64 % 1033,2 hPa 0,0 l/m 10,5 km/h N -2,9 C -0,1 C 29,0 km/h
05.01.2020 12:00 3,9 C 60 % 1032,9 hPa 0,0 l/m 10,8 km/h N -3,2 C 0,4 C 30,6 km/h
05.01.2020 13:00 4,2 C 58 % 1032,9 hPa 0,0 l/m 9,2 km/h N -3,5 C 1,8 C 27,4 km/h
05.01.2020 14:00 4,3 C 56 % 1032,9 hPa 0,0 l/m 7,2 km/h N -3,8 C 3,2 C 24,9 km/h
05.01.2020 15:00 4,1 C 56 % 1033,4 hPa 0,0 l/m 4,8 km/h N -4,0 C 4,1 C 21,7 km/h
05.01.2020 16:00 3,3 C 58 % 1034,0 hPa 0,0 l/m 3,2 km/h N -4,3 C 3,3 C 18,5 km/h
05.01.2020 17:00 2,4 C 61 % 1034,6 hPa 0,0 l/m 2,4 km/h N -4,3 C 2,4 C 14,5 km/h
05.01.2020 18:00 2,0 C 65 % 1035,1 hPa 0,0 l/m 3,2 km/h N -4,0 C 2,0 C 13,7 km/h
05.01.2020 19:00 1,8 C 66 % 1035,4 hPa 0,0 l/m 6,4 km/h N -3,9 C 1,9 C 15,3 km/h
05.01.2020 20:00 1,7 C 67 % 1035,8 hPa 0,0 l/m 4,8 km/h N -3,9 C 1,7 C 11,3 km/h
05.01.2020 21:00 1,5 C 67 % 1035,9 hPa 0,0 l/m 4,0 km/h N -4,0 C 1,5 C 11,3 km/h
05.01.2020 22:00 1,0 C 69 % 1035,9 hPa 0,0 l/m 2,4 km/h N -4,0 C 1,0 C 8,9 km/h
05.01.2020 23:00 0,8 C 71 % 1036,1 hPa 0,0 l/m 1,6 km/h N -4,0 C 0,8 C 11,3 km/h
Min-Datum _ 30.12.19 31.12.19 04.01.20 - 30.12.19 - 30.12.19 30.12.19 30.12.19
_ Min-Zeit 06:15 12:00 18:00 - 00:00 - 06:00 06:00 00:00
Minimum _ -5,7 C 42 % 1021,1 hPa - 0,0 km/h - -8,3 C -5,7 C 0,0 km/h
Max-Datum _ 31.12.19 03.01.20 30.12.19 05.01.20 04.01.20 - 04.01.20 31.12.19 04.01.20
_ Max-Zeit 11:45 06:00 01:30 00:15 18:15 - 02:30 13:45 21:15
Maximum _ 11,6 C 89 % 1040,0 hPa 1,8 l/m 20,0 km/h
N
- 5,3 C 10,2 C 57,9 km/h
N
Durchschnitt _ 1,1 C 75 % 1030,7 hPa #4,2 l/m 2,7 km/h N -3,1 C 0,4 C 9,2 km/h